createdAt,value
2018-06-03T00:00:30.569Z,99211.84
2018-06-03T00:02:58.939Z,99204.50
2018-06-03T00:05:32.870Z,99183.14
2018-06-03T00:08:01.245Z,99206.42
2018-06-03T00:10:29.643Z,99205.98
2018-06-03T00:12:58.016Z,99206.67
2018-06-03T00:15:35.265Z,99212.45
2018-06-03T00:18:03.417Z,99216.70
2018-06-03T00:20:43.198Z,99205.98
2018-06-03T00:23:11.604Z,99216.63
2018-06-03T00:25:39.983Z,99213.21
2018-06-03T00:28:08.399Z,99195.68
2018-06-03T00:30:36.777Z,99216.50
2018-06-03T00:33:04.914Z,99217.91
2018-06-03T00:35:32.730Z,99214.60
2018-06-03T00:38:01.094Z,99217.64
2018-06-03T00:40:29.504Z,99216.75
2018-06-03T00:42:58.056Z,99218.36
2018-06-03T00:45:32.290Z,99218.41
2018-06-03T00:48:00.674Z,99222.87
2018-06-03T00:50:38.041Z,99201.66
2018-06-03T00:53:06.421Z,99213.84
2018-06-03T00:55:34.802Z,99215.18
2018-06-03T00:58:03.169Z,99219.70
2018-06-03T01:00:44.528Z,99192.25
2018-06-03T01:03:12.903Z,99211.17
2018-06-03T01:05:41.278Z,99214.88
2018-06-03T01:08:09.658Z,99212.13
2018-06-03T01:10:38.034Z,99211.13
2018-06-03T01:13:06.414Z,99212.52
2018-06-03T01:15:34.801Z,99211.87
2018-06-03T01:18:03.189Z,99217.92
2018-06-03T01:20:36.780Z,99204.95
2018-06-03T01:23:05.173Z,99206.09
2018-06-03T01:25:33.557Z,99196.33
2018-06-03T01:28:01.942Z,99196.04
2018-06-03T01:30:32.164Z,99192.70
2018-06-03T01:33:00.542Z,99199.82
2018-06-03T01:35:31.706Z,99189.99
2018-06-03T01:38:00.101Z,99202.29
2018-06-03T01:40:43.104Z,99199.14
2018-06-03T01:43:11.263Z,99203.27
2018-06-03T01:46:08.629Z,99210.40
2018-06-03T01:48:37.116Z,99202.28
2018-06-03T01:51:05.755Z,99204.09
2018-06-03T01:53:34.268Z,99207.98
2018-06-03T01:56:02.801Z,99205.08
2018-06-03T01:58:31.328Z,99208.12
2018-06-03T02:00:59.824Z,99205.45
2018-06-03T02:03:28.359Z,99202.42
2018-06-03T02:05:57.030Z,99208.12
2018-06-03T02:08:25.561Z,99198.48
2018-06-03T02:10:54.077Z,99204.45
2018-06-03T02:13:22.598Z,99202.18
2018-06-03T02:15:51.139Z,99194.37
2018-06-03T02:18:19.715Z,99203.10
2018-06-03T02:20:48.233Z,99203.58
2018-06-03T02:23:16.751Z,99206.00
2018-06-03T02:25:45.294Z,99205.75
2018-06-03T02:28:13.888Z,99204.44
2018-06-03T02:30:42.373Z,99205.16
2018-06-03T02:33:10.877Z,99204.41
2018-06-03T02:35:40.617Z,99206.85
2018-06-03T02:38:09.132Z,99201.74
2018-06-03T02:40:37.715Z,99203.20
2018-06-03T02:43:06.379Z,99213.62
2018-06-03T02:45:34.947Z,99206.70
2018-06-03T02:48:03.490Z,99206.20
2018-06-03T02:50:36.169Z,99208.39
2018-06-03T02:53:04.922Z,99208.02
2018-06-03T02:55:38.147Z,99136.00
2018-06-03T02:58:06.857Z,99211.38
2018-06-03T03:00:35.397Z,99207.52
2018-06-03T03:03:04.003Z,99170.95
2018-06-03T03:05:32.506Z,99205.52
2018-06-03T03:08:01.034Z,99203.24
2018-06-03T03:10:33.975Z,99032.12
2018-06-03T03:13:02.525Z,99189.89
2018-06-03T03:15:31.069Z,99189.89
2018-06-03T03:17:59.597Z,99192.91
2018-06-03T03:20:35.996Z,99194.85
2018-06-03T03:23:04.550Z,99201.27
2018-06-03T03:25:37.675Z,99190.86
2018-06-03T03:28:06.181Z,99190.39
2018-06-03T03:30:34.681Z,99192.08
2018-06-03T03:33:03.241Z,99196.33
2018-06-03T03:35:33.360Z,99201.80
2018-06-03T03:38:01.875Z,99022.88
2018-06-03T03:40:31.473Z,99206.55
2018-06-03T03:42:59.994Z,99198.66
2018-06-03T03:45:28.575Z,99204.60
2018-06-03T03:47:57.099Z,99201.33
2018-06-03T03:50:26.048Z,99207.13
2018-06-03T03:52:54.597Z,99211.77
2018-06-03T03:55:26.896Z,99216.73
2018-06-03T03:57:55.395Z,99217.34
2018-06-03T04:00:33.838Z,99216.39
2018-06-03T04:03:02.325Z,99221.61
2018-06-03T04:05:42.693Z,99222.47
2018-06-03T04:08:11.209Z,99227.78
2018-06-03T04:10:39.752Z,99226.70
2018-06-03T04:13:08.449Z,99233.28
2018-06-03T04:15:40.325Z,99229.16
2018-06-03T04:18:08.833Z,99230.50
2018-06-03T04:20:39.016Z,99239.95
2018-06-03T04:23:07.541Z,99243.84
2018-06-03T04:25:47.340Z,99245.19
2018-06-03T04:28:15.851Z,99243.84
2018-06-03T04:30:44.388Z,99247.84
2018-06-03T04:33:12.890Z,99245.33
2018-06-03T04:35:41.425Z,99250.31
2018-06-03T04:38:09.924Z,99253.59
2018-06-03T04:40:41.400Z,99255.19
2018-06-03T04:43:09.949Z,99257.48
2018-06-03T04:45:38.442Z,99255.68
2018-06-03T04:48:06.998Z,99250.68
2018-06-03T04:50:38.841Z,99248.61
2018-06-03T04:53:08.270Z,99257.10
2018-06-03T04:55:37.428Z,99255.78
2018-06-03T04:58:05.939Z,99258.68
2018-06-03T05:00:41.505Z,99067.66
2018-06-03T05:03:10.060Z,99259.14
2018-06-03T05:05:39.456Z,99100.77
2018-06-03T05:08:07.969Z,99268.47
2018-06-03T05:10:36.492Z,99262.02
2018-06-03T05:13:05.034Z,99269.77
2018-06-03T05:15:33.560Z,99268.85
2018-06-03T05:18:02.088Z,99284.49
2018-06-03T05:20:40.549Z,99275.38
2018-06-03T05:23:09.379Z,99272.86
2018-06-03T05:25:44.697Z,99153.07
2018-06-03T05:28:13.210Z,99289.55
2018-06-03T05:30:41.749Z,99290.44
2018-06-03T05:33:10.584Z,99283.05
2018-06-03T05:35:39.104Z,99279.78
2018-06-03T05:38:07.597Z,99286.19
2018-06-03T05:40:36.776Z,99279.33
2018-06-03T05:43:05.289Z,99287.59
2018-06-03T05:45:39.997Z,99287.23
2018-06-03T05:48:08.540Z,99290.47
2018-06-03T05:50:37.355Z,99170.93
2018-06-03T05:53:05.899Z,99291.92
2018-06-03T05:55:34.456Z,99288.26
2018-06-03T05:58:03.177Z,99293.24
2018-06-03T06:00:34.634Z,99253.03
2018-06-03T06:03:03.174Z,99292.31
2018-06-03T06:05:31.744Z,99290.38
2018-06-03T06:08:00.305Z,99298.13
2018-06-03T06:10:28.881Z,99296.08
2018-06-03T06:12:57.385Z,99297.19
2018-06-03T06:15:36.285Z,99299.11
2018-06-03T06:18:04.880Z,99297.92
2018-06-03T06:20:40.425Z,99299.84
2018-06-03T06:23:08.992Z,99300.05
2018-06-03T06:25:37.561Z,99304.42
2018-06-03T06:28:06.112Z,99300.22
2018-06-03T06:30:35.127Z,99299.59
2018-06-03T06:33:03.717Z,99304.64
2018-06-03T06:35:34.751Z,99299.29
2018-06-03T06:38:03.287Z,99299.31
2018-06-03T06:40:36.929Z,99299.53
2018-06-03T06:43:05.570Z,99293.59
2018-06-03T06:45:34.078Z,99300.22
2018-06-03T06:48:02.587Z,99306.08
2018-06-03T06:50:41.208Z,99308.23
2018-06-03T06:53:09.705Z,99305.12
2018-06-03T06:55:45.293Z,99301.03
2018-06-03T06:58:13.841Z,99297.39
2018-06-03T07:00:42.420Z,99305.08
2018-06-03T07:03:11.002Z,99302.91
2018-06-03T07:05:39.536Z,99299.50
2018-06-03T07:08:08.085Z,99301.12
2018-06-03T07:10:36.744Z,99305.97
2018-06-03T07:13:05.449Z,99301.98
2018-06-03T07:15:38.714Z,99305.49
2018-06-03T07:18:07.262Z,99310.98
2018-06-03T07:20:35.883Z,99309.98
2018-06-03T07:23:04.552Z,99309.83
2018-06-03T07:25:33.255Z,99315.34
2018-06-03T07:28:01.777Z,99308.20
2018-06-03T07:30:30.260Z,99104.78
2018-06-03T07:32:58.761Z,99315.57
2018-06-03T07:35:27.345Z,99314.33
2018-06-03T07:37:55.851Z,99306.80
2018-06-03T07:40:24.461Z,99303.61
2018-06-03T07:42:52.972Z,99305.08
2018-06-03T07:45:37.269Z,99298.25
2018-06-03T07:48:06.098Z,99303.92
2018-06-03T07:50:34.739Z,99301.32
2018-06-03T07:53:03.265Z,99296.66
2018-06-03T07:55:31.793Z,99305.01
2018-06-03T07:58:00.329Z,99303.40
2018-06-03T08:00:30.619Z,99270.53
2018-06-03T08:02:59.154Z,99305.95
2018-06-03T08:05:27.702Z,99312.34
2018-06-03T08:07:56.240Z,99305.58
2018-06-03T08:10:24.805Z,99300.90
2018-06-03T08:12:53.301Z,99309.86
2018-06-03T08:15:33.349Z,99315.27
2018-06-03T08:18:01.886Z,99170.66
2018-06-03T08:20:31.228Z,99307.36
2018-06-03T08:22:59.838Z,99307.44
2018-06-03T08:25:28.364Z,99305.75
2018-06-03T08:27:56.878Z,99304.41
2018-06-03T08:30:25.530Z,99297.16
2018-06-03T08:32:55.389Z,99304.91
2018-06-03T08:35:36.795Z,99310.20
2018-06-03T08:38:05.297Z,99310.14
2018-06-03T08:40:33.801Z,99307.36
2018-06-03T08:43:02.466Z,99303.43
2018-06-03T08:45:31.027Z,99297.13
2018-06-03T08:47:59.605Z,99306.87
2018-06-03T08:50:36.204Z,99305.41
2018-06-03T08:53:05.487Z,99307.03
2018-06-03T08:55:34.091Z,99314.70
2018-06-03T08:58:02.725Z,99308.80
2018-06-03T09:00:31.275Z,99297.34
2018-06-03T09:02:59.957Z,99300.83
2018-06-03T09:05:28.568Z,99306.02
2018-06-03T09:07:57.326Z,99297.44
2018-06-03T09:10:31.292Z,99295.63
2018-06-03T09:12:59.847Z,99285.28
2018-06-03T09:15:42.465Z,99288.33
2018-06-03T09:18:11.296Z,99298.09
2018-06-03T09:20:39.814Z,99293.50
2018-06-03T09:23:08.409Z,99294.86
2018-06-03T09:25:37.854Z,99280.63
2018-06-03T09:28:06.740Z,99257.64
2018-06-03T09:30:35.477Z,99280.88
2018-06-03T09:33:04.128Z,99288.49
2018-06-03T09:38:11.407Z,99288.45
2018-06-03T09:46:25.533Z,99287.50
2018-06-03T09:48:54.150Z,99282.95
2018-06-03T09:51:22.697Z,99273.80
2018-06-03T09:53:51.515Z,99277.14
2018-06-03T09:56:20.055Z,99280.30
2018-06-03T09:58:48.756Z,99276.93
2018-06-03T10:01:17.350Z,99267.75
2018-06-03T10:03:45.901Z,99272.31
2018-06-03T10:06:15.103Z,99264.13
2018-06-03T10:08:44.144Z,99260.59
2018-06-03T10:11:12.673Z,99258.34
2018-06-03T10:13:41.173Z,99259.64
2018-06-03T10:16:09.681Z,99257.52
2018-06-03T10:18:38.411Z,99254.59
2018-06-03T10:21:07.062Z,99251.52
2018-06-03T10:23:35.592Z,99240.88
2018-06-03T10:26:04.210Z,99013.38
2018-06-03T10:28:33.001Z,99238.37
2018-06-03T10:31:01.538Z,99244.17
2018-06-03T10:33:30.122Z,99240.51
2018-06-03T10:35:58.678Z,99239.70
2018-06-03T10:38:27.194Z,99241.80
2018-06-03T10:40:56.347Z,99008.68
2018-06-03T10:43:25.065Z,99226.55
2018-06-03T10:45:53.636Z,99225.16
2018-06-03T10:48:22.147Z,99218.18
2018-06-03T10:50:50.931Z,99210.55
2018-06-03T10:53:19.485Z,99208.39
2018-06-03T10:55:54.414Z,99212.20
2018-06-03T10:58:23.060Z,99201.91
2018-06-03T11:00:51.745Z,99199.58
2018-06-03T11:03:20.268Z,99192.27
2018-06-03T11:05:48.856Z,99196.29
2018-06-03T11:08:17.568Z,99186.08
2018-06-03T11:10:46.111Z,99194.39
2018-06-03T11:13:14.663Z,99189.05
2018-06-03T11:15:43.236Z,99190.69
2018-06-03T11:18:12.794Z,99184.89
2018-06-03T11:20:41.544Z,99170.83
2018-06-03T11:23:10.420Z,99174.32
2018-06-03T11:25:38.942Z,99174.00
2018-06-03T11:28:07.481Z,99167.15
2018-06-03T11:30:36.681Z,99170.75
2018-06-03T11:33:05.546Z,99163.78
2018-06-03T11:35:35.220Z,99153.25
2018-06-03T11:38:03.723Z,99152.73
2018-06-03T11:40:32.236Z,99154.46
2018-06-03T11:43:00.730Z,99161.05
2018-06-03T11:45:40.734Z,99165.59
2018-06-03T11:48:09.565Z,99156.96
2018-06-03T11:50:44.137Z,99155.98
2018-06-03T11:53:12.713Z,99163.72
2018-06-03T11:55:41.248Z,99157.34
2018-06-03T11:58:45.684Z,99159.94
2018-06-03T12:01:14.307Z,99157.45
2018-06-03T12:03:42.797Z,99154.27
2018-06-03T12:06:11.675Z,99137.06
2018-06-03T12:08:40.231Z,99140.17
2018-06-03T12:11:09.069Z,99134.88
2018-06-03T12:13:37.620Z,99129.88
2018-06-03T12:16:06.220Z,99130.86
2018-06-03T12:18:34.858Z,99121.09
2018-06-03T12:21:03.492Z,99117.37
2018-06-03T12:23:32.037Z,99112.16
2018-06-03T12:26:00.817Z,99105.77
2018-06-03T12:28:29.381Z,99109.61
2018-06-03T12:30:58.241Z,99110.30
2018-06-03T12:33:26.893Z,99104.52
2018-06-03T12:36:08.266Z,99098.77
2018-06-03T12:38:36.884Z,99096.63
2018-06-03T12:41:05.420Z,99094.16
2018-06-03T12:43:34.001Z,99096.72
2018-06-03T12:46:02.514Z,99093.67
2018-06-03T12:48:31.024Z,99097.13
2018-06-03T12:50:59.758Z,99085.84
2018-06-03T12:53:28.309Z,99094.44
2018-06-03T12:55:57.396Z,99088.05
2018-06-03T12:58:25.908Z,99090.57
2018-06-03T13:00:54.471Z,99083.62
2018-06-03T13:03:23.689Z,99088.88
2018-06-03T13:05:53.462Z,99086.00
2018-06-03T13:08:22.005Z,99029.00
2018-06-03T13:10:50.501Z,99069.47
2018-06-03T13:13:19.008Z,99084.31
2018-06-03T13:15:47.557Z,99074.52
2018-06-03T13:18:16.239Z,99076.23
2018-06-03T13:20:54.019Z,99077.41
2018-06-03T13:23:22.570Z,99084.63
2018-06-03T13:25:52.553Z,99094.27
2018-06-03T13:28:21.079Z,99089.99
2018-06-03T13:30:50.696Z,99084.38
2018-06-03T13:33:19.377Z,99079.34
2018-06-03T13:35:48.306Z,99076.58
2018-06-03T13:38:17.070Z,99074.64
2018-06-03T13:40:45.740Z,99066.91
2018-06-03T13:43:14.839Z,99075.05
2018-06-03T13:45:43.379Z,99061.60
2018-06-03T13:48:11.977Z,99065.64
2018-06-03T13:50:40.491Z,99063.87
2018-06-03T13:53:09.069Z,99055.46
2018-06-03T13:55:37.597Z,99050.94
2018-06-03T13:58:06.253Z,99056.50
2018-06-03T14:00:39.419Z,99054.13
2018-06-03T14:03:08.040Z,99047.22
2018-06-03T14:05:36.566Z,99049.06
2018-06-03T14:08:05.245Z,99042.30
2018-06-03T14:10:33.896Z,99045.69
2018-06-03T14:13:02.510Z,99044.34
2018-06-03T14:15:31.032Z,99041.33
2018-06-03T14:18:00.046Z,99037.78
2018-06-03T14:20:28.573Z,99037.95
2018-06-03T14:22:57.095Z,99027.78
2018-06-03T14:25:42.886Z,99029.77
2018-06-03T14:28:11.532Z,99024.55
2018-06-03T14:30:40.070Z,99025.72
2018-06-03T14:33:08.582Z,99023.89
2018-06-03T14:35:37.096Z,99013.22
2018-06-03T14:38:05.740Z,99010.36
2018-06-03T14:40:34.271Z,99011.70
2018-06-03T14:43:02.793Z,99014.23
2018-06-03T14:45:31.331Z,99007.67
2018-06-03T14:47:59.836Z,99008.66
2018-06-03T14:50:28.375Z,99008.13
2018-06-03T14:52:57.084Z,99000.23
2018-06-03T14:55:25.644Z,99003.27
2018-06-03T14:57:54.163Z,99002.42
2018-06-03T15:00:22.637Z,99001.59
2018-06-03T15:02:51.548Z,99002.73
2018-06-03T15:05:20.345Z,99005.95
2018-06-03T15:07:49.075Z,99000.41
2018-06-03T15:10:29.095Z,99008.02
2018-06-03T15:12:57.651Z,98990.51
2018-06-03T15:15:32.472Z,98990.53
2018-06-03T15:18:01.069Z,98986.34
2018-06-03T15:20:29.599Z,98987.05
2018-06-03T15:22:58.142Z,98989.91
2018-06-03T15:25:29.121Z,98979.80
2018-06-03T15:27:57.693Z,98979.80
2018-06-03T15:30:33.253Z,98950.98
2018-06-03T15:33:01.736Z,98980.80
2018-06-03T15:35:41.861Z,98977.24
2018-06-03T15:38:10.409Z,98973.36
2018-06-03T15:40:45.829Z,98969.97
2018-06-03T15:43:14.757Z,98967.27
2018-06-03T15:45:43.266Z,98963.55
2018-06-03T15:48:11.841Z,98960.02
2018-06-03T15:50:43.356Z,98960.30
2018-06-03T15:53:11.940Z,98957.75
2018-06-03T15:55:40.489Z,98954.28
2018-06-03T15:58:09.090Z,98945.92
2018-06-03T16:00:37.641Z,98948.97
2018-06-03T16:03:06.248Z,98951.81
2018-06-03T16:05:34.938Z,98793.47
2018-06-03T16:08:03.496Z,98941.33
2018-06-03T16:10:32.135Z,98947.73
2018-06-03T16:13:00.628Z,98949.61
2018-06-03T16:15:29.134Z,98949.47
2018-06-03T16:17:57.651Z,98957.98
2018-06-03T16:20:26.543Z,98958.92
2018-06-03T16:22:55.088Z,98955.53
2018-06-03T16:25:36.786Z,98941.30
2018-06-03T16:28:05.361Z,98948.89
2018-06-03T16:30:33.995Z,98950.75
2018-06-03T16:33:02.653Z,98948.70
2018-06-03T16:35:39.529Z,98945.59
2018-06-03T16:38:08.038Z,98952.60
2018-06-03T16:40:54.612Z,98947.88
2018-06-03T16:43:23.157Z,98951.00
2018-06-03T16:45:51.893Z,98950.81
2018-06-03T16:48:20.513Z,98948.73
2018-06-03T16:50:49.037Z,98944.84
2018-06-03T16:53:17.545Z,98942.86
2018-06-03T16:55:50.474Z,98943.30
2018-06-03T16:58:18.989Z,98939.73
2018-06-03T17:00:47.544Z,98946.73
2018-06-03T17:03:16.278Z,98946.72
2018-06-03T17:05:44.913Z,98934.31
2018-06-03T17:08:13.573Z,98932.11
2018-06-03T17:10:45.671Z,98933.55
2018-06-03T17:13:14.368Z,98936.88
2018-06-03T17:15:42.877Z,98934.09
2018-06-03T17:18:11.450Z,98936.97
2018-06-03T17:20:40.037Z,98932.91
2018-06-03T17:23:08.701Z,98933.78
2018-06-03T17:25:37.428Z,98937.62
2018-06-03T17:28:05.968Z,98936.07
2018-06-03T17:30:36.886Z,98947.20
2018-06-03T17:33:05.441Z,98940.42
2018-06-03T17:35:34.377Z,98942.61
2018-06-03T17:38:03.206Z,98946.17
2018-06-03T17:40:31.762Z,98946.39
2018-06-03T17:43:00.294Z,98948.23
2018-06-03T17:45:28.833Z,98944.89
2018-06-03T17:47:57.396Z,98947.06
2018-06-03T17:50:25.916Z,98951.11
2018-06-03T17:52:54.493Z,98944.04
2018-06-03T17:55:23.099Z,98944.42
2018-06-03T17:57:51.620Z,98947.34
2018-06-03T18:00:37.468Z,98939.24
2018-06-03T18:03:05.974Z,98944.31
2018-06-03T18:05:34.692Z,98934.55
2018-06-03T18:08:03.293Z,98940.25
2018-06-03T18:10:31.798Z,98939.42
2018-06-03T18:13:00.368Z,98936.08
2018-06-03T18:15:28.977Z,98940.82
2018-06-03T18:17:57.490Z,98944.17
2018-06-03T18:20:26.408Z,98954.14
2018-06-03T18:22:56.745Z,98951.64
2018-06-03T18:25:25.419Z,98947.09
2018-06-03T18:27:54.015Z,98950.31
2018-06-03T18:30:32.762Z,98952.80
2018-06-03T18:33:01.310Z,98950.45
2018-06-03T18:35:32.454Z,98944.90
2018-06-03T18:38:01.022Z,98939.82
2018-06-03T18:40:49.025Z,98948.56
2018-06-03T18:43:17.590Z,98960.86
2018-06-03T18:45:46.192Z,98955.48
2018-06-03T18:48:14.719Z,98956.95
2018-06-03T18:50:43.243Z,98958.58
2018-06-03T18:53:11.785Z,98964.79
2018-06-03T18:55:40.390Z,98971.17
2018-06-03T18:58:08.953Z,98972.84
2018-06-03T19:00:37.595Z,98946.02
2018-06-03T19:03:06.106Z,98982.93
2018-06-03T19:05:34.679Z,98984.61
2018-06-03T19:08:03.300Z,98986.80
2018-06-03T19:13:11.775Z,98992.01
2018-06-03T19:15:40.767Z,99001.77
2018-06-03T19:18:09.298Z,99000.24
2018-06-03T19:20:37.848Z,99005.73
2018-06-03T19:23:06.631Z,99007.52
2018-06-03T19:25:41.193Z,99008.19
2018-06-03T19:28:12.774Z,99001.73
2018-06-03T19:30:41.776Z,99014.27
2018-06-03T19:33:10.763Z,99013.20
2018-06-03T19:35:39.463Z,99026.80
2018-06-03T19:38:08.016Z,99024.59
2018-06-03T19:40:36.858Z,99019.81
2018-06-03T19:43:05.800Z,99027.88
2018-06-03T19:45:39.572Z,99007.34
2018-06-03T19:48:08.202Z,99031.27
2018-06-03T19:50:36.818Z,99029.74
2018-06-03T19:53:05.836Z,99040.69
2018-06-03T19:55:34.772Z,99030.75
2018-06-03T19:58:03.472Z,99036.62
2018-06-03T20:00:42.306Z,98916.34
2018-06-03T20:03:11.120Z,99042.11
2018-06-03T20:05:39.793Z,99031.20
2018-06-03T20:08:08.427Z,99027.98
2018-06-03T20:10:36.980Z,99025.97
2018-06-03T20:13:05.532Z,99022.42
2018-06-03T20:15:38.267Z,99029.14
2018-06-03T20:18:07.919Z,99033.47
2018-06-03T20:20:36.606Z,99033.99
2018-06-03T20:23:05.541Z,99036.45
2018-06-03T20:25:34.074Z,99031.03
2018-06-03T20:28:03.197Z,99027.96
2018-06-03T20:30:35.957Z,99029.16
2018-06-03T20:33:04.659Z,99018.37
2018-06-03T20:35:33.369Z,99018.55
2018-06-03T20:38:01.869Z,99014.88
2018-06-03T20:40:51.295Z,99017.37
2018-06-03T20:43:19.853Z,99015.78
2018-06-03T20:45:48.763Z,99013.39
2018-06-03T20:48:17.788Z,99018.28
2018-06-03T20:50:46.726Z,99019.63
2018-06-03T20:53:15.269Z,99013.92
2018-06-03T20:55:43.843Z,99017.00
2018-06-03T20:58:12.398Z,99015.80
2018-06-03T21:00:40.945Z,99016.90
2018-06-03T21:03:10.006Z,99024.83
2018-06-03T21:05:47.465Z,99012.61
2018-06-03T21:08:16.083Z,99018.81
2018-06-03T21:10:44.647Z,99014.70
2018-06-03T21:13:13.315Z,99016.34
2018-06-03T21:15:41.909Z,99019.31
2018-06-03T21:18:10.409Z,99018.32
2018-06-03T21:20:39.087Z,99017.63
2018-06-03T21:23:07.645Z,99022.57
2018-06-03T21:25:36.210Z,99026.24
2018-06-03T21:28:05.079Z,99019.39
2018-06-03T21:30:33.580Z,99017.21
2018-06-03T21:33:02.195Z,99018.64
2018-06-03T21:35:31.013Z,99018.26
2018-06-03T21:37:59.597Z,99011.94
2018-06-03T21:40:28.188Z,99007.71
2018-06-03T21:42:56.749Z,99008.45
2018-06-03T21:45:34.311Z,99007.23
2018-06-03T21:48:02.935Z,99011.20
2018-06-03T21:50:38.801Z,99008.60
2018-06-03T21:53:07.620Z,99003.30
2018-06-03T21:55:36.369Z,99001.39
2018-06-03T21:58:05.354Z,98998.92
2018-06-03T22:00:34.241Z,98993.78
2018-06-03T22:03:02.735Z,98990.67
2018-06-03T22:05:49.985Z,98990.38
2018-06-03T22:08:18.507Z,99002.42
2018-06-03T22:10:47.024Z,98994.99
2018-06-03T22:13:15.612Z,98999.02
2018-06-03T22:15:44.169Z,98998.45
2018-06-03T22:18:12.729Z,98999.31
2018-06-03T22:20:41.416Z,98997.05
2018-06-03T22:23:09.928Z,98996.71
2018-06-03T22:25:38.986Z,98875.06
2018-06-03T22:28:07.570Z,98997.39
2018-06-03T22:30:36.102Z,98999.34
2018-06-03T22:33:04.630Z,99003.60
2018-06-03T22:35:37.556Z,98994.25
2018-06-03T22:38:06.093Z,98999.34
2018-06-03T22:43:12.824Z,98997.55
2018-06-03T22:45:41.431Z,99003.70
2018-06-03T22:48:09.954Z,99002.02
2018-06-03T22:50:38.666Z,98998.16
2018-06-03T22:53:07.212Z,98989.08
2018-06-03T22:55:35.773Z,98993.55
2018-06-03T22:58:04.284Z,98991.25
2018-06-03T23:00:36.297Z,98983.11
2018-06-03T23:03:12.922Z,98983.55
2018-06-03T23:05:41.467Z,98980.40
2018-06-03T23:08:09.993Z,98982.84
2018-06-03T23:10:38.746Z,98978.08
2018-06-03T23:13:07.452Z,98975.95
2018-06-03T23:15:40.269Z,98978.20
2018-06-03T23:18:08.761Z,98969.05
2018-06-03T23:20:41.240Z,98975.05
2018-06-03T23:23:09.866Z,98974.64
2018-06-03T23:25:49.627Z,98968.27
2018-06-03T23:28:18.183Z,98968.31
2018-06-03T23:30:46.770Z,98961.56
2018-06-03T23:33:15.318Z,98964.48
2018-06-03T23:35:47.093Z,98957.91
2018-06-03T23:38:22.678Z,98963.79
2018-06-03T23:40:51.255Z,98968.59
2018-06-03T23:43:19.788Z,98965.46
2018-06-03T23:45:48.319Z,98964.03
2018-06-03T23:48:16.836Z,98965.53
2018-06-03T23:50:45.441Z,98957.19
2018-06-03T23:53:14.045Z,98962.83
2018-06-03T23:55:42.593Z,98964.22
2018-06-03T23:58:11.096Z,98955.81
